createdAt,value
2023-04-13T00:00:11.500Z,95342.63
2023-04-13T00:03:03.305Z,95342.97
2023-04-13T00:05:53.723Z,95347.84
2023-04-13T00:08:45.521Z,95344.38
2023-04-13T00:11:35.453Z,95339.31
2023-04-13T00:14:29.731Z,95332.56
2023-04-13T00:17:18.352Z,95338.00
2023-04-13T00:20:13.240Z,95350.72
2023-04-13T00:23:01.836Z,95351.59
2023-04-13T00:25:51.533Z,95352.72
2023-04-13T00:28:41.667Z,95343.22
2023-04-13T00:31:30.958Z,95344.03
2023-04-13T00:34:19.995Z,95341.91
2023-04-13T00:37:08.599Z,95352.22
2023-04-13T00:39:58.071Z,95340.34
2023-04-13T00:42:47.521Z,95350.59
2023-04-13T00:45:39.649Z,95345.19
2023-04-13T00:48:28.468Z,95356.25
2023-04-13T00:51:18.382Z,95363.53
2023-04-13T00:54:08.064Z,95353.97
2023-04-13T00:56:59.266Z,95372.00
2023-04-13T00:59:49.464Z,95387.88
2023-04-13T01:02:42.930Z,95404.75
2023-04-13T01:05:41.127Z,95407.25
2023-04-13T01:08:37.176Z,95396.34
2023-04-13T01:11:31.599Z,95413.53
2023-04-13T01:14:30.847Z,95425.66
2023-04-13T01:17:23.942Z,95402.06
2023-04-13T01:20:17.820Z,95427.78
2023-04-13T01:23:10.124Z,95425.22
2023-04-13T01:26:04.548Z,95421.41
2023-04-13T01:28:55.158Z,95411.03
2023-04-13T01:31:45.542Z,95421.66
2023-04-13T01:34:34.704Z,95422.13
2023-04-13T01:37:26.104Z,95419.44
2023-04-13T01:40:18.645Z,95412.66
2023-04-13T01:43:12.216Z,95401.31
2023-04-13T01:46:14.000Z,95412.97
2023-04-13T01:49:18.576Z,95400.38
2023-04-13T01:52:30.360Z,95399.63
2023-04-13T01:55:20.906Z,95402.41
2023-04-13T01:58:15.790Z,95393.47
2023-04-13T02:01:11.297Z,95410.88
2023-04-13T02:04:00.613Z,95397.13
2023-04-13T02:06:53.609Z,95403.88
2023-04-13T02:09:50.894Z,95398.47
2023-04-13T02:12:39.877Z,95393.34
2023-04-13T02:15:28.586Z,95393.91
2023-04-13T02:18:20.314Z,95394.16
2023-04-13T02:21:10.042Z,95397.94
2023-04-13T02:23:59.176Z,95420.06
2023-04-13T02:26:47.852Z,95427.09
2023-04-13T02:29:38.072Z,95420.31
2023-04-13T02:32:26.848Z,95417.34
2023-04-13T02:35:20.637Z,95416.00
2023-04-13T02:38:10.709Z,95424.09
2023-04-13T02:41:01.126Z,95429.25
2023-04-13T02:43:52.506Z,95428.94
2023-04-13T02:46:44.856Z,95416.06
2023-04-13T02:49:37.527Z,95415.91
2023-04-13T02:52:41.085Z,95412.69
2023-04-13T02:55:29.819Z,95430.16
2023-04-13T02:58:32.934Z,95422.06
2023-04-13T03:01:25.805Z,95432.69
2023-04-13T03:04:17.413Z,95441.91
2023-04-13T03:07:09.944Z,95442.19
2023-04-13T03:10:06.567Z,95455.66
2023-04-13T03:12:56.085Z,95443.81
2023-04-13T03:15:46.570Z,95436.19
2023-04-13T03:18:38.485Z,95454.38
2023-04-13T03:21:29.371Z,95455.66
2023-04-13T03:24:27.870Z,95447.56
2023-04-13T03:27:21.435Z,95451.91
2023-04-13T03:30:12.334Z,95455.06
2023-04-13T03:33:11.357Z,95459.09
2023-04-13T03:36:01.561Z,95460.22
2023-04-13T03:38:54.607Z,95445.91
2023-04-13T03:41:44.619Z,95448.31
2023-04-13T03:44:34.727Z,95434.47
2023-04-13T03:47:26.820Z,95437.81
2023-04-13T03:50:16.455Z,95433.75
2023-04-13T03:53:05.185Z,95430.25
2023-04-13T03:55:54.517Z,95434.09
2023-04-13T03:58:44.592Z,95428.69
2023-04-13T04:01:36.420Z,95425.75
2023-04-13T04:04:27.628Z,95429.84
2023-04-13T04:07:16.345Z,95424.59
2023-04-13T04:10:07.078Z,95424.69
2023-04-13T04:12:56.870Z,95431.22
2023-04-13T04:15:46.743Z,95428.03
2023-04-13T04:18:38.418Z,95442.59
2023-04-13T04:21:34.165Z,95441.19
2023-04-13T04:24:27.655Z,95458.19
2023-04-13T04:27:20.454Z,95455.75
2023-04-13T04:30:11.663Z,95454.94
2023-04-13T04:33:02.966Z,95446.72
2023-04-13T04:35:58.862Z,95442.25
2023-04-13T04:38:58.258Z,95441.91
2023-04-13T04:41:49.239Z,95441.91
2023-04-13T04:44:39.998Z,95438.75
2023-04-13T04:47:32.278Z,95436.03
2023-04-13T04:50:33.294Z,95445.78
2023-04-13T04:53:32.184Z,95458.34
2023-04-13T04:56:22.519Z,95450.25
2023-04-13T04:59:14.425Z,95459.25
2023-04-13T05:02:16.793Z,95458.34
2023-04-13T05:05:07.008Z,95463.41
2023-04-13T05:07:55.751Z,95465.28
2023-04-13T05:10:47.062Z,95470.44
2023-04-13T05:13:35.655Z,95464.56
2023-04-13T05:16:34.764Z,95460.47
2023-04-13T05:19:35.483Z,95462.25
2023-04-13T05:22:47.865Z,95469.16
2023-04-13T05:25:36.974Z,95476.41
2023-04-13T05:28:34.054Z,95478.31
2023-04-13T05:31:24.225Z,95479.38
2023-04-13T05:34:13.584Z,95484.91
2023-04-13T05:37:10.479Z,95487.22
2023-04-13T05:39:59.556Z,95472.94
2023-04-13T05:42:57.791Z,95483.59
2023-04-13T05:45:52.185Z,95490.41
2023-04-13T05:48:43.161Z,95491.13
2023-04-13T05:51:34.466Z,95499.72
2023-04-13T05:54:23.694Z,95495.56
2023-04-13T05:57:12.510Z,95498.72
2023-04-13T06:00:10.239Z,95498.91
2023-04-13T06:03:04.790Z,95500.03
2023-04-13T06:05:54.225Z,95495.44
2023-04-13T06:08:44.456Z,95509.03
2023-04-13T06:11:33.010Z,95516.19
2023-04-13T06:14:22.213Z,95514.81
2023-04-13T06:17:10.926Z,95515.13
2023-04-13T06:20:01.016Z,95523.31
2023-04-13T06:22:50.908Z,95524.78
2023-04-13T06:25:42.720Z,95530.25
2023-04-13T06:28:33.717Z,95535.81
2023-04-13T06:31:23.372Z,95531.97
2023-04-13T06:34:14.137Z,95535.16
2023-04-13T06:37:05.498Z,95537.09
2023-04-13T06:40:12.463Z,95544.63
2023-04-13T06:43:18.975Z,95538.41
2023-04-13T06:46:31.362Z,95548.13
2023-04-13T06:49:28.007Z,95550.94
2023-04-13T06:52:20.227Z,95557.69
2023-04-13T06:55:10.221Z,95556.97
2023-04-13T06:58:01.868Z,95559.75
2023-04-13T07:00:50.647Z,95559.91
2023-04-13T07:03:40.551Z,95553.69
2023-04-13T07:06:29.749Z,95552.00
2023-04-13T07:09:20.959Z,95550.19
2023-04-13T07:12:09.899Z,95547.88
2023-04-13T07:14:59.045Z,95535.81
2023-04-13T07:17:47.748Z,95545.03
2023-04-13T07:20:38.715Z,95556.25
2023-04-13T07:23:28.037Z,95546.84
2023-04-13T07:26:18.529Z,95551.91
2023-04-13T07:29:13.197Z,95542.31
2023-04-13T07:32:06.502Z,95541.22
2023-04-13T07:35:00.007Z,95546.81
2023-04-13T07:37:51.382Z,95543.31
2023-04-13T07:40:42.857Z,95540.25
2023-04-13T07:43:35.350Z,95543.22
2023-04-13T07:46:28.676Z,95537.66
2023-04-13T07:49:17.763Z,95538.63
2023-04-13T07:52:07.321Z,95536.44
2023-04-13T07:54:58.725Z,95538.59
2023-04-13T07:57:48.837Z,95539.50
2023-04-13T08:00:39.728Z,95549.25
2023-04-13T08:03:32.005Z,95548.31
2023-04-13T08:06:22.538Z,95543.09
2023-04-13T08:09:12.884Z,95540.22
2023-04-13T08:12:03.229Z,95538.97
2023-04-13T08:14:52.191Z,95543.47
2023-04-13T08:17:44.411Z,95559.28
2023-04-13T08:20:35.532Z,95542.56
2023-04-13T08:23:25.869Z,95543.50
2023-04-13T08:26:18.608Z,95547.09
2023-04-13T08:29:08.976Z,95536.94
2023-04-13T08:31:58.246Z,95548.53
2023-04-13T08:34:50.014Z,95538.91
2023-04-13T08:37:39.885Z,95526.19
2023-04-13T08:40:30.854Z,95528.38
2023-04-13T08:43:21.458Z,95523.78
2023-04-13T08:46:10.468Z,95517.25
2023-04-13T08:49:00.497Z,95519.50
2023-04-13T08:52:04.817Z,95525.81
2023-04-13T08:54:55.825Z,95534.09
2023-04-13T08:57:51.209Z,95530.41
2023-04-13T09:00:41.677Z,95540.72
2023-04-13T09:03:38.322Z,95547.50
2023-04-13T09:06:33.211Z,95536.59
2023-04-13T09:09:27.557Z,95530.16
2023-04-13T09:12:16.714Z,95525.31
2023-04-13T09:15:07.191Z,95515.19
2023-04-13T09:18:10.419Z,95515.97
2023-04-13T09:21:04.310Z,95517.66
2023-04-13T09:23:56.642Z,95521.25
2023-04-13T09:26:48.498Z,95531.53
2023-04-13T09:29:37.216Z,95503.88
2023-04-13T09:32:27.714Z,95526.75
2023-04-13T09:35:19.272Z,95530.25
2023-04-13T09:38:08.904Z,95517.25
2023-04-13T09:40:59.158Z,95523.50
2023-04-13T09:43:49.084Z,95519.19
2023-04-13T09:46:38.414Z,95523.75
2023-04-13T09:49:27.556Z,95519.16
2023-04-13T09:52:23.873Z,95516.47
2023-04-13T09:55:17.736Z,95516.16
2023-04-13T09:58:13.937Z,95512.66
2023-04-13T10:01:04.106Z,95513.47
2023-04-13T10:03:53.315Z,95484.41
2023-04-13T10:06:44.894Z,95501.78
2023-04-13T10:09:33.517Z,95513.94
2023-04-13T10:12:23.293Z,95501.38
2023-04-13T10:15:23.357Z,95497.44
2023-04-13T10:18:28.185Z,95501.13
2023-04-13T10:21:17.453Z,95502.81
2023-04-13T10:24:12.088Z,95496.69
2023-04-13T10:27:12.574Z,95492.88
2023-04-13T10:30:04.083Z,95502.09
2023-04-13T10:33:05.100Z,95484.19
2023-04-13T10:35:59.345Z,95478.72
2023-04-13T10:38:48.583Z,95480.25
2023-04-13T10:41:37.942Z,95478.69
2023-04-13T10:44:27.193Z,95478.34
2023-04-13T10:47:18.681Z,95467.84
2023-04-13T10:50:17.632Z,95460.72
2023-04-13T10:53:09.272Z,95433.25
2023-04-13T10:55:58.708Z,95451.38
2023-04-13T10:58:54.105Z,95469.03
2023-04-13T11:01:44.001Z,95472.75
2023-04-13T11:04:32.795Z,95468.56
2023-04-13T11:07:24.105Z,95463.00
2023-04-13T11:10:14.256Z,95466.34
2023-04-13T11:13:03.057Z,95475.75
2023-04-13T11:15:54.124Z,95450.72
2023-04-13T11:18:42.817Z,95468.94
2023-04-13T11:21:32.559Z,95471.75
2023-04-13T11:24:25.830Z,95452.84
2023-04-13T11:27:20.678Z,95457.97
2023-04-13T11:30:11.104Z,95463.66
2023-04-13T11:33:01.751Z,95471.59
2023-04-13T11:35:51.624Z,95473.44
2023-04-13T11:38:42.174Z,95476.09
2023-04-13T11:41:33.172Z,95471.41
2023-04-13T11:44:23.871Z,95463.28
2023-04-13T11:47:16.144Z,95476.97
2023-04-13T11:50:06.624Z,95470.66
2023-04-13T11:52:57.640Z,95471.63
2023-04-13T11:55:53.201Z,95474.22
2023-04-13T11:58:43.804Z,95461.53
2023-04-13T12:01:36.707Z,95464.78
2023-04-13T12:04:29.231Z,95453.59
2023-04-13T12:07:18.826Z,95463.28
2023-04-13T12:10:11.036Z,95460.91
2023-04-13T12:13:17.174Z,95458.78
2023-04-13T12:16:14.661Z,95452.94
2023-04-13T12:19:10.190Z,95459.66
2023-04-13T12:22:00.600Z,95457.19
2023-04-13T12:24:50.978Z,95465.22
2023-04-13T12:27:41.351Z,95461.59
2023-04-13T12:30:29.958Z,95461.94
2023-04-13T12:33:20.150Z,95441.91
2023-04-13T12:36:11.690Z,95465.56
2023-04-13T12:39:01.022Z,95465.59
2023-04-13T12:41:49.841Z,95470.81
2023-04-13T12:44:40.398Z,95467.06
2023-04-13T12:47:29.025Z,95480.16
2023-04-13T12:50:19.353Z,95479.63
2023-04-13T12:53:09.847Z,95478.56
2023-04-13T12:55:58.468Z,95490.28
2023-04-13T12:58:48.957Z,95464.50
2023-04-13T13:01:38.206Z,95478.34
2023-04-13T13:04:30.166Z,95479.72
2023-04-13T13:07:19.631Z,95488.97
2023-04-13T13:10:25.775Z,95488.19
2023-04-13T13:13:19.227Z,95498.25
2023-04-13T13:16:09.134Z,95488.72
2023-04-13T13:18:57.724Z,95496.06
2023-04-13T13:21:46.405Z,95487.91
2023-04-13T13:24:35.771Z,95485.22
2023-04-13T13:30:18.213Z,95486.34
2023-04-13T13:33:07.214Z,95458.09
2023-04-13T13:35:56.235Z,95484.16
2023-04-13T13:38:44.891Z,95460.56
2023-04-13T13:41:34.502Z,95454.88
2023-04-13T13:44:25.023Z,95484.44
2023-04-13T13:47:15.636Z,95491.75
2023-04-13T13:50:11.136Z,95479.31
2023-04-13T13:53:04.957Z,95477.41
2023-04-13T13:56:01.870Z,95484.19
2023-04-13T13:58:51.462Z,95478.47
2023-04-13T14:01:42.002Z,95472.25
2023-04-13T14:04:31.714Z,95490.13
2023-04-13T14:07:20.507Z,95496.63
2023-04-13T14:10:11.719Z,95473.31
2023-04-13T14:13:00.466Z,95494.47
2023-04-13T14:15:49.297Z,95487.41
2023-04-13T14:18:39.418Z,95487.41
2023-04-13T14:21:28.392Z,95472.72
2023-04-13T14:24:17.622Z,95483.00
2023-04-13T14:27:07.266Z,95479.75
2023-04-13T14:29:55.934Z,95480.84
2023-04-13T14:32:47.247Z,95471.88
2023-04-13T14:35:38.747Z,95467.28
2023-04-13T14:38:27.864Z,95469.47
2023-04-13T14:41:17.182Z,95456.19
2023-04-13T14:44:06.021Z,95467.09
2023-04-13T14:46:55.342Z,95485.81
2023-04-13T14:49:44.412Z,95482.00
2023-04-13T14:52:35.056Z,95476.88
2023-04-13T14:55:24.612Z,95476.56
2023-04-13T14:58:13.490Z,95471.69
2023-04-13T15:01:02.352Z,95474.94
2023-04-13T15:03:53.337Z,95482.03
2023-04-13T15:06:42.252Z,95495.56
2023-04-13T15:09:33.161Z,95493.13
2023-04-13T15:12:22.754Z,95475.22
2023-04-13T15:15:13.238Z,95464.09
2023-04-13T15:18:03.731Z,95450.00
2023-04-13T15:20:52.868Z,95429.91
2023-04-13T15:23:42.072Z,95426.09
2023-04-13T15:26:38.666Z,95440.47
2023-04-13T15:29:27.458Z,95442.63
2023-04-13T15:32:16.903Z,95453.78
2023-04-13T15:35:06.487Z,95480.38
2023-04-13T15:37:55.818Z,95506.69
2023-04-13T15:40:44.534Z,95512.13
2023-04-13T15:43:35.560Z,95503.16
2023-04-13T15:46:24.794Z,95498.25
2023-04-13T15:49:13.537Z,95493.94
2023-04-13T15:52:02.311Z,95497.47
2023-04-13T15:54:51.059Z,95502.53
2023-04-13T15:57:40.193Z,95509.09
2023-04-13T16:00:31.682Z,95505.84
2023-04-13T16:03:22.547Z,95510.69
2023-04-13T16:06:11.716Z,95499.00
2023-04-13T16:09:01.217Z,95506.03
2023-04-13T16:11:50.940Z,95512.75
2023-04-13T16:14:41.981Z,95512.44
2023-04-13T16:17:32.449Z,95507.25
2023-04-13T16:20:23.311Z,95513.50
2023-04-13T16:23:14.334Z,95512.69
2023-04-13T16:26:03.878Z,95501.00
2023-04-13T16:28:53.544Z,95503.41
2023-04-13T16:31:44.841Z,95503.41
2023-04-13T16:34:35.108Z,95510.72
2023-04-13T16:37:24.657Z,95518.53
2023-04-13T16:40:15.413Z,95483.22
2023-04-13T16:43:05.874Z,95509.56
2023-04-13T16:45:54.585Z,95513.63
2023-04-13T16:48:44.257Z,95505.75
2023-04-13T16:51:34.344Z,95516.31
2023-04-13T16:54:23.884Z,95515.75
2023-04-13T16:57:12.989Z,95527.34
2023-04-13T17:00:07.180Z,95532.75
2023-04-13T17:02:56.185Z,95542.25
2023-04-13T17:05:45.435Z,95547.66
2023-04-13T17:08:35.655Z,95541.41
2023-04-13T17:11:24.536Z,95540.31
2023-04-13T17:14:13.239Z,95552.78
2023-04-13T17:17:02.736Z,95547.59
2023-04-13T17:19:53.253Z,95543.25
2023-04-13T17:22:42.889Z,95550.03
2023-04-13T17:25:34.834Z,95543.81
2023-04-13T17:28:24.782Z,95543.50
2023-04-13T17:31:13.935Z,95543.75
2023-04-13T17:34:02.663Z,95539.97
2023-04-13T17:36:51.745Z,95525.78
2023-04-13T17:39:42.699Z,95530.69
2023-04-13T17:42:32.892Z,95520.88
2023-04-13T17:45:22.111Z,95538.63
2023-04-13T17:48:13.865Z,95528.59
2023-04-13T17:51:03.491Z,95514.16
2023-04-13T17:53:53.732Z,95520.16
2023-04-13T17:56:43.860Z,95523.72
2023-04-13T17:59:34.056Z,95511.03
2023-04-13T18:02:23.830Z,95518.31
2023-04-13T18:05:15.500Z,95521.59
2023-04-13T18:08:05.251Z,95522.66
2023-04-13T18:10:56.586Z,95525.13
2023-04-13T18:13:45.833Z,95520.53
2023-04-13T18:16:36.722Z,95528.88
2023-04-13T18:19:28.981Z,95530.22
2023-04-13T18:22:17.835Z,95542.41
2023-04-13T18:25:07.777Z,95545.66
2023-04-13T18:27:56.713Z,95544.31
2023-04-13T18:30:46.373Z,95526.06
2023-04-13T18:33:37.766Z,95543.44
2023-04-13T18:36:36.932Z,95551.56
2023-04-13T18:39:28.695Z,95558.88
2023-04-13T18:42:18.509Z,95553.13
2023-04-13T18:45:08.550Z,95552.81
2023-04-13T18:47:58.576Z,95558.47
2023-04-13T18:55:29.378Z,95564.38
2023-04-13T18:58:19.587Z,95563.25
2023-04-13T19:01:15.930Z,95532.50
2023-04-13T19:04:05.663Z,95551.53
2023-04-13T19:06:54.526Z,95549.91
2023-04-13T19:09:43.498Z,95536.28
2023-04-13T19:12:33.552Z,95543.66
2023-04-13T19:15:23.999Z,95546.09
2023-04-13T19:18:12.609Z,95516.41
2023-04-13T19:21:01.441Z,95539.81
2023-04-13T19:23:50.434Z,95547.38
2023-04-13T19:26:40.138Z,95554.91
2023-04-13T19:29:31.651Z,95554.97
2023-04-13T19:32:20.341Z,95557.41
2023-04-13T19:35:10.493Z,95582.56
2023-04-13T19:38:00.557Z,95584.44
2023-04-13T19:40:49.063Z,95582.53
2023-04-13T19:43:38.522Z,95584.03
2023-04-13T19:46:28.992Z,95588.97
2023-04-13T19:49:18.461Z,95583.22
2023-04-13T19:52:06.994Z,95579.91
2023-04-13T19:54:56.233Z,95584.50
2023-04-13T19:57:44.767Z,95575.03
2023-04-13T20:00:34.491Z,95563.41
2023-04-13T20:03:26.101Z,95568.53
2023-04-13T20:06:16.922Z,95567.47
2023-04-13T20:09:10.280Z,95557.19
2023-04-13T20:12:00.449Z,95558.00
2023-04-13T20:14:49.413Z,95556.38
2023-04-13T20:17:38.783Z,95563.66
2023-04-13T20:20:29.494Z,95565.56
2023-04-13T20:23:18.104Z,95565.22
2023-04-13T20:26:06.664Z,95566.25
2023-04-13T20:28:55.334Z,95561.00
2023-04-13T20:31:44.344Z,95560.22
2023-04-13T20:34:34.889Z,95550.22
2023-04-13T20:37:25.394Z,95558.59
2023-04-13T20:40:14.117Z,95554.19
2023-04-13T20:46:11.439Z,95553.09
2023-04-13T20:49:02.764Z,95549.75
2023-04-13T20:51:53.655Z,95554.84
2023-04-13T20:54:43.949Z,95565.03
2023-04-13T20:57:33.173Z,95560.94
2023-04-13T21:00:25.307Z,95570.94
2023-04-13T21:03:15.526Z,95572.81
2023-04-13T21:06:04.216Z,95573.91
2023-04-13T21:08:54.771Z,95570.06
2023-04-13T21:11:47.741Z,95576.28
2023-04-13T21:14:36.247Z,95577.03
2023-04-13T21:17:25.815Z,95575.38
2023-04-13T21:20:14.363Z,95567.81
2023-04-13T21:23:03.350Z,95564.47
2023-04-13T21:25:51.887Z,95558.81
2023-04-13T21:28:42.730Z,95549.53
2023-04-13T21:31:31.341Z,95564.41
2023-04-13T21:34:22.784Z,95550.34
2023-04-13T21:37:11.757Z,95544.03
2023-04-13T21:40:00.523Z,95546.19
2023-04-13T21:42:49.518Z,95549.16
2023-04-13T21:45:39.901Z,95539.16
2023-04-13T21:48:28.529Z,95536.13
2023-04-13T21:51:17.104Z,95545.63
2023-04-13T21:54:07.136Z,95537.53
2023-04-13T21:56:56.084Z,95527.47
2023-04-13T21:59:44.703Z,95527.47
2023-04-13T22:02:34.868Z,95529.63
2023-04-13T22:05:23.688Z,95529.63
2023-04-13T22:08:13.520Z,95525.28
2023-04-13T22:11:02.676Z,95521.44
2023-04-13T22:13:52.717Z,95515.75
2023-04-13T22:16:41.400Z,95514.84
2023-04-13T22:19:31.988Z,95515.09
2023-04-13T22:22:21.092Z,95523.38
2023-04-13T22:25:10.122Z,95516.34
2023-04-13T22:27:59.187Z,95516.56
2023-04-13T22:30:47.878Z,95524.09
2023-04-13T22:33:38.468Z,95513.75
2023-04-13T22:36:28.458Z,95524.53
2023-04-13T22:39:17.987Z,95523.72
2023-04-13T22:42:06.812Z,95526.41
2023-04-13T22:44:55.914Z,95531.00
2023-04-13T22:47:44.556Z,95523.97
2023-04-13T22:50:34.069Z,95534.50
2023-04-13T22:53:24.037Z,95537.78
2023-04-13T22:56:12.963Z,95531.00
2023-04-13T22:59:01.909Z,95540.72
2023-04-13T23:01:51.866Z,95545.06
2023-04-13T23:04:40.968Z,95552.34
2023-04-13T23:07:30.617Z,95542.03
2023-04-13T23:10:21.093Z,95547.19
2023-04-13T23:13:09.706Z,95543.69
2023-04-13T23:16:00.978Z,95535.00
2023-04-13T23:18:49.658Z,95540.63
2023-04-13T23:21:39.166Z,95540.91
2023-04-13T23:24:29.573Z,95539.53
2023-04-13T23:27:20.882Z,95532.41
2023-04-13T23:30:10.973Z,95537.16
2023-04-13T23:33:00.498Z,95541.09
2023-04-13T23:35:52.697Z,95531.38
2023-04-13T23:38:41.680Z,95511.81
2023-04-13T23:41:30.747Z,95516.69
2023-04-13T23:44:21.910Z,95530.81
2023-04-13T23:47:11.102Z,95518.88
2023-04-13T23:50:00.627Z,95518.66
2023-04-13T23:52:49.242Z,95525.94
2023-04-13T23:55:39.322Z,95521.34
2023-04-13T23:58:28.381Z,95519.94
